Time;durP1;ratioP1;P1;durP2;ratioP2;P2;SDS_P1;SDS_P2;PMS_P1;PMS_P2;Temp;Humidity;BMP_temperature;BMP_pressure;BME280_temperature;BME280_humidity;BME280_pressure;Samples;Min_cycle;Max_cycle;Signal;HPM_P1;HPM_P2
2023/01/24 08:26:10;;;;;;;3.83;2.10;;;23.70;56.70;;;;;;4214670;27;20411;-48
2023/01/24 08:28:33;;;;;;;7.13;2.00;;;23.50;56.90;;;;;;4195606;28;20045;-50
2023/01/24 08:30:58;;;;;;;1.87;1.67;;;23.40;57.30;;;;;;4204895;28;20429;-48
2023/01/24 08:33:20;;;;;;;2.05;1.60;;;23.50;57.60;;;;;;4198614;28;20068;-45
2023/01/24 08:35:44;;;;;;;1.75;1.55;;;23.70;58.20;;;;;;4204256;28;20040;-47
2023/01/24 08:38:06;;;;;;;2.17;1.67;;;23.90;58.40;;;;;;4190864;28;20094;-45
2023/01/24 08:40:28;;;;;;;2.17;1.55;;;24.20;58.70;;;;;;4190312;28;20546;-44
2023/01/24 08:42:51;;;;;;;1.95;1.40;;;24.40;58.60;;;;;;4193179;28;20036;-46
2023/01/24 08:45:14;;;;;;;2.38;1.50;;;24.60;58.80;;;;;;4195807;28;20045;-44
2023/01/24 08:47:36;;;;;;;2.47;1.10;;;24.80;59.40;;;;;;4195358;28;20040;-45
2023/01/24 08:49:59;;;;;;;1.88;1.60;;;24.90;59.10;;;;;;4192189;28;20036;-45
2023/01/24 08:52:21;;;;;;;1.92;1.30;;;25.10;59.00;;;;;;4188572;28;20556;-45
2023/01/24 08:54:44;;;;;;;4.07;1.38;;;25.20;59.10;;;;;;4191873;28;20041;-44
2023/01/24 08:57:07;;;;;;;4.10;1.25;;;25.30;59.20;;;;;;4189648;28;20467;-45
2023/01/24 08:59:30;;;;;;;1.35;1.10;;;25.50;59.30;;;;;;4190199;28;20048;-48
2023/01/24 09:01:52;;;;;;;2.15;1.13;;;25.60;59.30;;;;;;4195543;28;20123;-44
2023/01/24 09:04:14;;;;;;;1.10;0.82;;;25.70;59.30;;;;;;4190680;28;20032;-40
2023/01/24 09:06:37;;;;;;;3.88;1.20;;;25.80;59.30;;;;;;4186849;28;20037;-46
2023/01/24 09:08:59;;;;;;;3.10;1.05;;;26.00;59.40;;;;;;4181308;28;20164;-43
2023/01/24 09:11:22;;;;;;;4.43;1.05;;;26.00;59.30;;;;;;4183536;28;20522;-45
2023/01/24 09:13:45;;;;;;;16.02;1.77;;;26.10;59.40;;;;;;4162751;28;20083;-42
2023/01/24 09:16:07;;;;;;;2.35;1.00;;;26.20;59.50;;;;;;4176713;28;20043;-44
2023/01/24 09:18:30;;;;;;;2.70;1.00;;;26.20;59.60;;;;;;4173866;28;20476;-46
2023/01/24 09:20:52;;;;;;;1.95;0.90;;;26.40;59.80;;;;;;4185321;28;20685;-45
2023/01/24 09:23:15;;;;;;;1.38;1.00;;;26.40;59.90;;;;;;4175568;28;20082;-43
2023/01/24 09:25:37;;;;;;;2.22;0.80;;;26.50;59.90;;;;;;4181339;28;20493;-45
2023/01/24 09:28:00;;;;;;;3.63;0.98;;;26.60;59.80;;;;;;4181055;28;20451;-41
2023/01/24 09:30:23;;;;;;;1.70;1.13;;;26.60;59.90;;;;;;4179759;28;20042;-43
2023/01/24 09:32:46;;;;;;;2.95;1.10;;;26.70;60.00;;;;;;4185253;28;20446;-42
2023/01/24 09:35:08;;;;;;;1.92;0.98;;;26.80;60.00;;;;;;4186602;28;20345;-43
2023/01/24 09:37:31;;;;;;;1.45;1.00;;;26.90;60.20;;;;;;4169347;28;20043;-40
2023/01/24 09:39:55;;;;;;;2.50;1.60;;;27.00;60.40;;;;;;4165916;28;20062;-45
2023/01/24 09:42:44;;;;;;;4.82;1.50;;;27.00;60.20;;;;;;4168060;28;20552;-43
2023/01/24 09:45:31;;;;;;;9.40;2.17;;;27.10;60.70;;;;;;4162141;28;20581;-46
2023/01/24 09:48:06;;;;;;;5.82;1.55;;;27.20;60.70;;;;;;4166882;28;20484;-45
2023/01/24 09:50:46;;;;;;;2.75;1.58;;;27.30;60.70;;;;;;4168232;28;20033;-49
2023/01/24 09:53:23;;;;;;;9.00;1.75;;;27.30;60.60;;;;;;4175160;28;20036;-47
2023/01/24 09:55:46;;;;;;;12.52;2.15;;;27.40;60.70;;;;;;4169070;28;20043;-45
2023/01/24 09:58:43;;;;;;;8.38;1.90;;;27.50;60.60;;;;;;4170137;28;20037;-44
2023/01/24 10:01:13;;;;;;;7.03;1.88;;;27.50;60.60;;;;;;4173967;28;20119;-49
2023/01/24 10:03:39;;;;;;;4.82;1.45;;;27.60;60.70;;;;;;4171158;28;20048;-50
2023/01/24 10:06:29;;;;;;;6.85;1.95;;;27.60;60.70;;;;;;4171750;28;20051;-50
2023/01/24 10:09:15;;;;;;;2.17;1.20;;;27.70;60.80;;;;;;4171680;28;20959;-50
2023/01/24 10:12:08;;;;;;;5.00;1.20;;;27.70;60.80;;;;;;4173387;28;20045;-48
2023/01/24 10:14:48;;;;;;;3.85;1.40;;;27.80;60.70;;;;;;4159170;28;20055;-56
2023/01/24 10:17:16;;;;;;;3.50;1.10;;;27.80;60.80;;;;;;4174974;28;20157;-49
2023/01/24 10:19:54;;;;;;;2.67;0.98;;;27.80;60.90;;;;;;4175305;28;20432;-49
2023/01/24 10:22:48;;;;;;;1.35;1.00;;;27.90;61.00;;;;;;4177071;28;20593;-48
2023/01/24 10:25:17;;;;;;;1.98;1.38;;;28.00;60.90;;;;;;4170731;28;20276;-50
2023/01/24 10:27:47;;;;;;;1.73;1.05;;;28.00;60.90;;;;;;4170559;28;20098;-48
2023/01/24 10:30:30;;;;;;;1.00;0.88;;;28.00;60.90;;;;;;4171912;28;20041;-52
2023/01/24 10:33:02;;;;;;;4.03;1.65;;;28.00;61.00;;;;;;4161886;28;20033;-54
2023/01/24 10:35:34;;;;;;;5.35;1.27;;;28.10;61.20;;;;;;4170799;28;20067;-47
2023/01/24 10:38:00;;;;;;;1.70;1.10;;;28.20;61.60;;;;;;4166259;28;20106;-47
2023/01/24 10:40:27;;;;;;;5.18;1.10;;;28.20;61.40;;;;;;4166642;28;20125;-48
2023/01/24 10:42:50;;;;;;;4.13;1.70;;;28.20;61.20;;;;;;4166749;28;20057;-46
2023/01/24 10:45:29;;;;;;;2.30;1.40;;;28.20;61.50;;;;;;4165470;28;20053;-47
2023/01/24 10:48:01;;;;;;;4.25;1.42;;;28.20;61.60;;;;;;4162362;28;20029;-50
2023/01/24 10:50:24;;;;;;;5.40;1.67;;;28.20;62.00;;;;;;4151921;28;20053;-53
2023/01/24 10:52:49;;;;;;;6.72;1.65;;;28.20;62.50;;;;;;4165859;28;20041;-53
2023/01/24 10:55:37;;;;;;;4.00;1.50;;;28.20;62.50;;;;;;4149148;28;20619;-49
2023/01/24 10:58:01;;;;;;;5.13;1.33;;;28.20;62.60;;;;;;4165120;28;20334;-49
2023/01/24 11:00:29;;;;;;;;;;;28.20;62.70;;;;;;4171102;28;20413;-47
2023/01/24 11:02:54;;;;;;;8.25;1.60;;;28.10;62.80;;;;;;4169661;28;19952;-45
2023/01/24 11:05:21;;;;;;;5.50;1.50;;;28.10;63.00;;;;;;4166603;28;20055;-43
2023/01/24 11:07:58;;;;;;;5.28;1.60;;;28.10;63.20;;;;;;4166125;28;20131;-47
2023/01/24 11:10:26;;;;;;;6.80;1.20;;;28.10;63.40;;;;;;4165524;28;20561;-47
2023/01/24 11:12:54;;;;;;;2.42;1.33;;;28.10;63.50;;;;;;4167429;28;20432;-48
2023/01/24 11:15:31;;;;;;;5.38;1.52;;;28.10;63.60;;;;;;4164622;28;20046;-48
2023/01/24 11:18:27;;;;;;;3.00;1.50;;;28.10;63.70;;;;;;4163312;28;20147;-52
2023/01/24 11:21:06;;;;;;;2.67;1.38;;;28.00;63.20;;;;;;4166698;28;20041;-49
2023/01/24 11:23:28;;;;;;;3.80;1.23;;;27.90;63.40;;;;;;4165318;28;20041;-52
2023/01/24 11:26:02;;;;;;;4.55;1.40;;;27.80;63.50;;;;;;4168303;28;20063;-46
2023/01/24 11:28:34;;;;;;;2.10;1.13;;;27.80;63.70;;;;;;4164476;28;20041;-48
2023/01/24 11:30:59;;;;;;;3.70;1.23;;;27.80;63.80;;;;;;4163078;28;20520;-46
2023/01/24 11:33:42;;;;;;;1.95;1.15;;;27.80;63.90;;;;;;4167453;28;20037;-46
2023/01/24 11:36:24;;;;;;;3.63;1.00;;;27.80;63.90;;;;;;4156009;28;20437;-43
2023/01/24 11:38:46;;;;;;;4.28;0.82;;;27.70;63.90;;;;;;4167171;28;20049;-46
2023/01/24 11:41:24;;;;;;;2.28;0.93;;;27.70;63.90;;;;;;4164009;28;20110;-48
2023/01/24 11:44:11;;;;;;;1.42;0.90;;;27.70;63.90;;;;;;4163842;28;20139;-50
2023/01/24 11:46:48;;;;;;;1.77;1.10;;;27.70;63.90;;;;;;4171194;28;20044;-52
2023/01/24 11:49:34;;;;;;;3.40;1.10;;;27.80;63.90;;;;;;4167359;28;20080;-46
2023/01/24 11:51:59;;;;;;;10.70;1.95;;;27.80;63.90;;;;;;4162323;28;20047;-47
2023/01/24 11:54:49;;;;;;;5.95;1.00;;;27.80;64.10;;;;;;4168727;28;20029;-47
2023/01/24 11:57:11;;;;;;;3.38;1.15;;;27.80;64.00;;;;;;4162878;28;20041;-46
2023/01/24 12:00:11;;;;;;;3.72;1.52;;;27.80;64.00;;;;;;4166348;28;20275;-46
2023/01/24 12:02:57;;;;;;;2.55;1.00;;;27.80;64.20;;;;;;4165622;28;20102;-51
2023/01/24 12:05:56;;;;;;;4.25;1.13;;;27.80;64.20;;;;;;4164641;28;20101;-48
2023/01/24 12:08:40;;;;;;;3.70;1.23;;;27.80;64.30;;;;;;4161768;28;20075;-50
2023/01/24 12:11:11;;;;;;;2.92;1.10;;;27.80;64.40;;;;;;4166531;28;20046;-46
2023/01/24 12:13:53;;;;;;;4.03;1.10;;;27.80;64.40;;;;;;4159395;28;20055;-48
2023/01/24 12:16:31;;;;;;;1.10;0.98;;;27.80;64.40;;;;;;4165243;28;20090;-44
2023/01/24 12:19:28;;;;;;;3.00;1.05;;;27.70;64.40;;;;;;4162412;28;20633;-46
2023/01/24 12:21:55;;;;;;;4.20;1.25;;;27.70;64.40;;;;;;4161401;28;20134;-48
2023/01/24 12:24:32;;;;;;;3.63;1.17;;;27.70;64.40;;;;;;4158901;28;20035;-51
2023/01/24 12:26:58;;;;;;;1.80;1.25;;;27.80;64.50;;;;;;4167828;28;20087;-53
2023/01/24 12:29:26;;;;;;;14.63;1.98;;;27.80;64.40;;;;;;4163776;28;20357;-52
2023/01/24 12:31:54;;;;;;;12.10;1.52;;;27.80;64.60;;;;;;4166145;28;20052;-47
2023/01/24 12:34:44;;;;;;;5.93;1.75;;;27.80;64.50;;;;;;4174329;28;20033;-51
2023/01/24 12:37:24;;;;;;;4.10;1.20;;;27.80;64.50;;;;;;4165438;28;20412;-53
2023/01/24 12:39:56;;;;;;;4.20;1.38;;;27.80;64.40;;;;;;4166333;28;20094;-47
2023/01/24 12:42:34;;;;;;;2.50;1.17;;;27.80;64.40;;;;;;4163317;28;20053;-50
2023/01/24 12:45:03;;;;;;;4.50;1.27;;;27.80;64.30;;;;;;4161858;28;20049;-48
2023/01/24 12:47:39;;;;;;;2.60;1.13;;;27.80;64.40;;;;;;4162745;28;20528;-51
2023/01/24 12:50:40;;;;;;;1.30;1.00;;;27.80;64.30;;;;;;4163860;28;20029;-48
2023/01/24 12:53:21;;;;;;;4.38;1.10;;;27.80;64.30;;;;;;4166206;28;20045;-47
2023/01/24 12:56:15;;;;;;;4.05;1.20;;;27.80;64.30;;;;;;4167389;28;20037;-51
2023/01/24 12:58:43;;;;;;;3.72;0.90;;;27.80;64.40;;;;;;4173754;28;20796;-46
2023/01/24 13:01:27;;;;;;;3.40;1.23;;;27.80;64.50;;;;;;4166784;28;20041;-49
2023/01/24 13:04:04;;;;;;;3.05;1.02;;;27.80;64.50;;;;;;4166865;28;20037;-48
2023/01/24 13:06:41;;;;;;;2.90;1.08;;;27.80;64.40;;;;;;4167992;28;20496;-44
2023/01/24 13:09:24;;;;;;;4.22;1.00;;;27.80;64.60;;;;;;4162571;28;20386;-48
2023/01/24 13:11:48;;;;;;;1.83;1.05;;;27.80;64.60;;;;;;4178155;28;20404;-53
2023/01/24 13:14:32;;;;;;;2.10;0.95;;;27.80;64.60;;;;;;4166084;28;20055;-48
2023/01/24 13:17:16;;;;;;;2.55;1.33;;;27.80;64.50;;;;;;4176213;28;20246;-50
2023/01/24 13:19:50;;;;;;;;;;;27.80;64.50;;;;;;4176753;28;20287;-46
2023/01/24 13:22:30;;;;;;;1.63;0.97;;;27.80;64.40;;;;;;4178156;28;20420;-46
2023/01/24 13:25:13;;;;;;;2.80;1.05;;;27.80;64.40;;;;;;4178084;28;20057;-50
2023/01/24 13:27:48;;;;;;;4.47;1.00;;;27.80;64.40;;;;;;4167661;28;20033;-46
2023/01/24 13:30:16;;;;;;;1.50;1.00;;;27.70;64.40;;;;;;4179106;28;20414;-48
2023/01/24 13:32:39;;;;;;;1.73;1.13;;;27.70;64.30;;;;;;4179703;28;20036;-48
2023/01/24 13:35:02;;;;;;;3.03;0.80;;;27.70;64.40;;;;;;4182995;28;20084;-51
2023/01/24 13:37:28;;;;;;;2.00;1.05;;;27.70;64.30;;;;;;4157107;28;20092;-48
2023/01/24 13:40:06;;;;;;;3.28;1.45;;;27.70;64.30;;;;;;4173725;28;20044;-49
2023/01/24 13:42:37;;;;;;;2.20;1.27;;;27.70;64.30;;;;;;4175336;28;20040;-47
2023/01/24 13:45:19;;;;;;;1.75;0.93;;;27.70;64.40;;;;;;4178198;28;20556;-54
2023/01/24 13:47:42;;;;;;;2.42;1.10;;;27.70;64.30;;;;;;4168569;28;20037;-52
2023/01/24 13:50:15;;;;;;;1.27;0.98;;;27.70;64.30;;;;;;4173559;28;20694;-50
2023/01/24 13:52:40;;;;;;;1.88;0.80;;;27.70;64.30;;;;;;4184599;28;20032;-51
2023/01/24 13:55:24;;;;;;;1.40;1.00;;;27.70;64.30;;;;;;4182537;28;20440;-48
2023/01/24 13:57:48;;;;;;;3.63;1.20;;;27.70;64.40;;;;;;4176725;28;20036;-57
2023/01/24 14:00:13;;;;;;;3.80;1.27;;;27.70;64.40;;;;;;4181394;28;20216;-51
2023/01/24 14:02:39;;;;;;;1.70;1.20;;;27.70;64.40;;;;;;4176571;28;20459;-49
2023/01/24 14:05:01;;;;;;;1.67;1.05;;;27.70;64.40;;;;;;4166378;28;20516;-49
2023/01/24 14:07:30;;;;;;;2.65;1.33;;;27.70;64.40;;;;;;4177514;28;20473;-45
2023/01/24 14:10:03;;;;;;;2.08;1.08;;;27.70;64.30;;;;;;4181110;28;20040;-50
2023/01/24 14:12:26;;;;;;;1.30;1.20;;;27.70;64.30;;;;;;4183318;28;20044;-47
2023/01/24 14:15:02;;;;;;;1.87;1.20;;;27.60;64.30;;;;;;4175549;28;20037;-48
2023/01/24 14:17:48;;;;;;;1.42;1.05;;;27.60;64.20;;;;;;4166661;28;20165;-47
2023/01/24 14:20:30;;;;;;;2.40;1.00;;;27.60;64.20;;;;;;4179706;28;20061;-47
2023/01/24 14:22:59;;;;;;;1.42;1.00;;;27.60;64.20;;;;;;4181990;28;20036;-46
2023/01/24 14:25:50;;;;;;;1.67;1.13;;;27.60;64.20;;;;;;4176682;28;20052;-47
2023/01/24 14:28:32;;;;;;;1.40;1.05;;;27.60;64.10;;;;;;4178384;28;20036;-48
2023/01/24 14:31:04;;;;;;;1.58;1.30;;;27.60;64.10;;;;;;4179978;28;20562;-45
2023/01/24 14:33:52;;;;;;;1.35;1.00;;;27.60;64.20;;;;;;4178817;28;20247;-45
2023/01/24 14:36:31;;;;;;;1.10;0.95;;;27.60;64.20;;;;;;4182686;28;20040;-46
2023/01/24 14:39:22;;;;;;;1.92;1.10;;;27.50;64.10;;;;;;4177259;28;20095;-46
2023/01/24 14:41:47;;;;;;;2.00;1.30;;;27.50;64.10;;;;;;4159257;28;20042;-47
2023/01/24 14:44:21;;;;;;;2.13;1.20;;;27.50;64.10;;;;;;4178171;28;20041;-56
2023/01/24 14:46:56;;;;;;;1.65;1.10;;;27.50;64.20;;;;;;4180020;28;20127;-48
2023/01/24 14:49:33;;;;;;;2.60;1.25;;;27.50;64.20;;;;;;4177834;28;20126;-49
2023/01/24 14:51:56;;;;;;;2.10;1.02;;;27.50;64.20;;;;;;4183194;28;20116;-53
2023/01/24 14:54:24;;;;;;;1.10;0.93;;;27.50;64.20;;;;;;4165964;28;20085;-48
2023/01/24 14:56:46;;;;;;;1.65;1.00;;;27.50;64.20;;;;;;4177243;28;20457;-51
2023/01/24 14:59:14;;;;;;;1.48;0.98;;;27.50;64.20;;;;;;4174417;28;20061;-49
2023/01/24 15:01:36;;;;;;;2.50;1.10;;;27.40;64.10;;;;;;4170858;28;20071;-49
2023/01/24 15:04:00;;;;;;;1.10;1.00;;;27.40;64.10;;;;;;4176997;28;20291;-48
2023/01/24 15:06:23;;;;;;;1.88;1.05;;;27.40;64.10;;;;;;4181388;28;20066;-46
2023/01/24 15:08:47;;;;;;;1.20;1.10;;;27.40;64.20;;;;;;4167472;28;20108;-45
2023/01/24 15:11:25;;;;;;;2.72;1.33;;;27.40;64.10;;;;;;4162724;28;20051;-47
2023/01/24 15:14:00;;;;;;;3.28;1.15;;;27.40;64.20;;;;;;4168382;28;20037;-49
2023/01/24 15:16:27;;;;;;;1.55;1.00;;;27.40;64.10;;;;;;4178610;28;20041;-51
2023/01/24 15:18:53;;;;;;;1.95;1.15;;;27.40;64.20;;;;;;4178491;28;20048;-49
2023/01/24 15:21:39;;;;;;;1.42;1.10;;;27.40;64.20;;;;;;4179943;28;20040;-51
2023/01/24 15:24:02;;;;;;;1.60;1.05;;;27.40;64.20;;;;;;4177764;28;20086;-51
2023/01/24 15:26:39;;;;;;;2.63;1.30;;;27.30;64.20;;;;;;4170738;28;20049;-46
2023/01/24 15:29:39;;;;;;;1.08;0.98;;;27.30;64.10;;;;;;4149820;28;20576;-47
2023/01/24 15:32:03;;;;;;;1.88;1.17;;;27.30;64.20;;;;;;4158856;28;20052;-49
2023/01/24 15:34:29;;;;;;;1.70;1.10;;;27.30;64.20;;;;;;4157407;28;20075;-46
2023/01/24 15:37:00;;;;;;;2.13;1.30;;;27.30;64.20;;;;;;4156055;28;20081;-47
2023/01/24 15:39:23;;;;;;;1.75;1.30;;;27.30;64.20;;;;;;4161188;28;20040;-46
2023/01/24 15:44:26;;;;;;;2.10;1.40;;;27.30;64.30;;;;;;4157786;28;20037;-48
2023/01/24 15:51:05;;;;;;;4.35;1.27;;;27.30;64.30;;;;;;4162753;28;20041;-52
2023/01/24 15:52:46;;;;;;;1.55;1.15;;;27.20;64.30;;;;;;4162030;28;20032;-49
2023/01/24 15:55:08;;;;;;;1.27;1.08;;;27.20;64.30;;;;;;4159471;28;20049;-51
2023/01/24 15:57:34;;;;;;;1.92;1.30;;;27.20;64.30;;;;;;4158947;28;20080;-45
2023/01/24 15:59:58;;;;;;;1.60;1.10;;;27.20;64.30;;;;;;4159690;28;20120;-47
2023/01/24 16:02:21;;;;;;;1.30;1.00;;;27.20;64.30;;;;;;4142793;28;20049;-49
2023/01/24 16:04:45;;;;;;;1.60;1.30;;;27.20;64.30;;;;;;4159523;28;20045;-47
2023/01/24 16:07:07;;;;;;;1.98;1.30;;;27.20;64.30;;;;;;4163617;28;20421;-47
2023/01/24 16:09:29;;;;;;;1.48;1.10;;;27.20;64.30;;;;;;4154886;28;20041;-50
2023/01/24 16:11:52;;;;;;;1.30;1.08;;;27.10;64.20;;;;;;4155204;28;20072;-45
2023/01/24 16:14:23;;;;;;;2.92;1.10;;;27.10;64.20;;;;;;4160075;28;20353;-44
2023/01/24 16:16:47;;;;;;;1.27;1.05;;;27.10;64.30;;;;;;4157660;28;20517;-49
2023/01/24 16:19:22;;;;;;;1.60;1.20;;;27.10;64.30;;;;;;4156145;28;20158;-45
2023/01/24 16:21:45;;;;;;;1.67;0.90;;;27.10;64.30;;;;;;4164717;28;20044;-46
2023/01/24 16:24:07;;;;;;;1.17;1.00;;;27.10;64.40;;;;;;4162023;28;20036;-45
2023/01/24 16:26:30;;;;;;;1.50;1.02;;;27.10;64.40;;;;;;4171977;28;20056;-48
2023/01/24 16:28:52;;;;;;;1.10;0.93;;;27.10;64.40;;;;;;4178474;28;20044;-51
2023/01/24 16:31:15;;;;;;;1.52;1.10;;;27.10;64.40;;;;;;4175657;28;20041;-49
2023/01/24 16:33:37;;;;;;;1.90;1.00;;;27.00;64.40;;;;;;4177255;28;20037;-48
2023/01/24 16:35:59;;;;;;;1.33;1.20;;;27.10;64.50;;;;;;4182336;28;20033;-48
2023/01/24 16:38:22;;;;;;;2.55;1.33;;;27.00;64.50;;;;;;4182975;28;20040;-50
2023/01/24 16:40:44;;;;;;;1.25;1.00;;;27.00;64.50;;;;;;4179380;28;20045;-47
2023/01/24 16:43:13;;;;;;;1.15;1.05;;;27.00;64.50;;;;;;4150761;28;20365;-48
2023/01/24 16:45:36;;;;;;;1.25;1.08;;;27.00;64.50;;;;;;4176580;28;20397;-46
2023/01/24 16:47:58;;;;;;;1.65;1.20;;;27.00;65.20;;;;;;4179012;28;20044;-56
2023/01/24 16:50:21;;;;;;;1.33;1.10;;;27.00;64.60;;;;;;4180117;28;20040;-53
2023/01/24 16:52:43;;;;;;;1.08;0.98;;;26.90;64.60;;;;;;4182491;28;20063;-50
2023/01/24 16:55:07;;;;;;;2.20;1.23;;;26.90;64.60;;;;;;4188148;28;20047;-50
2023/01/24 16:57:31;;;;;;;2.20;1.10;;;26.90;64.60;;;;;;4183756;28;20041;-47
2023/01/24 16:59:53;;;;;;;1.73;1.15;;;26.90;64.60;;;;;;4179215;28;20124;-51
2023/01/24 17:02:16;;;;;;;1.17;0.82;;;26.90;64.60;;;;;;4179819;28;20040;-45
2023/01/24 17:04:39;;;;;;;1.40;1.27;;;26.90;64.70;;;;;;4171574;28;20099;-51
2023/01/24 17:07:07;;;;;;;1.80;1.10;;;26.90;64.70;;;;;;4183364;28;20221;-49
2023/01/24 17:09:30;;;;;;;1.80;1.20;;;26.90;64.70;;;;;;4182525;28;20040;-50
2023/01/24 17:11:52;;;;;;;1.73;1.20;;;26.80;64.70;;;;;;4182189;28;20080;-47
2023/01/24 17:14:15;;;;;;;3.28;1.23;;;26.80;64.70;;;;;;4174840;28;20412;-46
2023/01/24 17:16:37;;;;;;;1.50;1.00;;;26.80;64.80;;;;;;4167539;28;20191;-48
2023/01/24 17:19:02;;;;;;;1.42;1.10;;;26.80;64.80;;;;;;4182742;28;20353;-47
2023/01/24 17:21:24;;;;;;;3.42;1.30;;;26.80;64.80;;;;;;4184598;28;20041;-47
2023/01/24 17:23:46;;;;;;;2.10;1.38;;;26.80;64.80;;;;;;4178873;28;20044;-51
2023/01/24 17:26:14;;;;;;;1.83;1.30;;;26.80;64.80;;;;;;4181763;28;20049;-55
2023/01/24 17:28:38;;;;;;;4.18;1.52;;;26.80;64.80;;;;;;4186292;28;20041;-46
2023/01/24 17:31:00;;;;;;;;;;;26.80;64.80;;;;;;4182314;28;20112;-49
2023/01/24 17:33:22;;;;;;;1.75;1.30;;;26.80;64.80;;;;;;4177193;28;19916;-47
2023/01/24 17:35:44;;;;;;;2.10;1.20;;;26.70;64.70;;;;;;4179209;28;20040;-48
2023/01/24 17:38:09;;;;;;;2.38;1.38;;;26.70;64.70;;;;;;4175497;28;20028;-45
2023/01/24 17:40:31;;;;;;;1.85;1.20;;;26.70;64.70;;;;;;4184460;28;20098;-49
2023/01/24 17:42:54;;;;;;;1.38;1.05;;;26.70;64.70;;;;;;4185439;28;20203;-47
2023/01/24 17:45:16;;;;;;;2.42;1.10;;;26.70;64.70;;;;;;4182930;28;20057;-46
2023/01/24 17:47:38;;;;;;;3.08;1.10;;;26.70;64.80;;;;;;4182600;28;20037;-45
2023/01/24 17:50:01;;;;;;;2.45;1.30;;;26.70;64.90;;;;;;4174580;28;20052;-46
2023/01/24 17:52:23;;;;;;;2.00;1.13;;;26.60;64.90;;;;;;4163082;28;20049;-47
2023/01/24 17:54:46;;;;;;;1.30;1.00;;;26.60;64.90;;;;;;4177873;28;20037;-47
2023/01/24 17:57:08;;;;;;;4.95;1.30;;;26.60;65.00;;;;;;4178798;28;20562;-47
2023/01/24 17:59:30;;;;;;;2.58;1.55;;;26.60;65.10;;;;;;4164431;28;21032;-49
2023/01/24 18:01:53;;;;;;;3.53;1.35;;;26.60;65.10;;;;;;4177416;28;20033;-57
2023/01/24 18:04:15;;;;;;;9.88;1.40;;;26.60;65.10;;;;;;4174735;28;20408;-57
2023/01/24 18:06:38;;;;;;;2.75;1.20;;;26.60;65.10;;;;;;4174775;28;20083;-58
2023/01/24 18:09:00;;;;;;;1.40;1.23;;;26.60;65.10;;;;;;4176299;28;20052;-55
2023/01/24 18:11:23;;;;;;;2.58;1.35;;;26.60;65.10;;;;;;4175847;28;20037;-60
2023/01/24 18:13:45;;;;;;;2.03;1.40;;;26.60;65.10;;;;;;4173947;28;20040;-47
2023/01/24 18:16:10;;;;;;;2.65;1.25;;;26.60;65.70;;;;;;4175601;28;20099;-52
2023/01/24 18:18:33;;;;;;;2.58;1.20;;;26.60;65.20;;;;;;4168526;28;20037;-49
2023/01/24 18:20:55;;;;;;;1.48;1.15;;;26.60;65.20;;;;;;4174947;28;20036;-50
2023/01/24 18:23:18;;;;;;;3.50;1.00;;;26.50;65.10;;;;;;4175016;28;20418;-48
2023/01/24 18:25:40;;;;;;;1.75;1.20;;;26.50;65.10;;;;;;4166275;28;20518;-50
2023/01/24 18:28:05;;;;;;;1.60;1.08;;;26.50;65.10;;;;;;4175359;28;20032;-49
2023/01/24 18:30:27;;;;;;;1.42;1.13;;;26.50;65.30;;;;;;4169396;28;20040;-47
2023/01/24 18:32:49;;;;;;;1.38;1.08;;;26.50;65.10;;;;;;4177887;28;20037;-48
2023/01/24 18:35:12;;;;;;;1.48;1.17;;;26.50;65.10;;;;;;4173195;28;20584;-46
2023/01/24 18:37:35;;;;;;;1.65;1.00;;;26.50;65.10;;;;;;4169550;28;20041;-45
2023/01/24 18:39:57;;;;;;;1.33;1.00;;;26.50;65.10;;;;;;4166263;28;20044;-47
2023/01/24 18:42:20;;;;;;;2.05;1.33;;;26.50;65.00;;;;;;4165636;28;20036;-45
2023/01/24 18:44:42;;;;;;;4.05;1.20;;;26.50;65.00;;;;;;4167321;28;20412;-46
2023/01/24 18:47:05;;;;;;;2.00;1.25;;;26.40;64.90;;;;;;4163578;28;20128;-47
2023/01/24 18:49:27;;;;;;;0.98;0.90;;;26.40;65.00;;;;;;4168491;28;20048;-46
2023/01/24 18:51:50;;;;;;;1.83;1.30;;;26.40;65.00;;;;;;4171557;28;20064;-48
2023/01/24 18:54:12;;;;;;;1.48;1.10;;;26.40;64.90;;;;;;4165243;28;20049;-46
2023/01/24 18:56:36;;;;;;;1.48;1.23;;;26.40;64.90;;;;;;4170721;28;20040;-48
2023/01/24 18:58:58;;;;;;;1.73;1.35;;;26.40;65.00;;;;;;4169466;28;20492;-46
2023/01/24 19:01:23;;;;;;;1.10;1.00;;;26.40;65.00;;;;;;4171022;28;20068;-52
2023/01/24 19:03:46;;;;;;;1.63;1.52;;;26.40;65.00;;;;;;4172088;28;20041;-51
2023/01/24 19:06:09;;;;;;;1.80;1.40;;;26.40;65.00;;;;;;4170200;28;20056;-46
2023/01/24 19:08:32;;;;;;;1.33;1.20;;;26.40;65.00;;;;;;4166896;28;20120;-51
2023/01/24 19:10:54;;;;;;;1.20;1.02;;;26.40;65.00;;;;;;4182700;28;20044;-48
2023/01/24 19:13:17;;;;;;;2.08;1.50;;;26.40;65.00;;;;;;4166898;28;20044;-49
2023/01/24 19:15:39;;;;;;;1.23;1.02;;;26.30;65.00;;;;;;4162719;28;20107;-49
2023/01/24 19:18:01;;;;;;;3.80;1.50;;;26.30;65.00;;;;;;4177373;28;20147;-47
2023/01/24 19:20:24;;;;;;;1.40;1.17;;;26.30;65.10;;;;;;4178457;28;20438;-56
2023/01/24 19:22:47;;;;;;;1.67;1.25;;;26.30;65.10;;;;;;4173103;28;20049;-50
2023/01/24 19:25:11;;;;;;;1.20;1.03;;;26.30;65.10;;;;;;4171140;28;20061;-47
2023/01/24 19:27:33;;;;;;;2.50;0.90;;;26.30;65.00;;;;;;4177061;28;20683;-47
2023/01/24 19:29:56;;;;;;;2.20;1.20;;;26.30;65.10;;;;;;4179755;28;20567;-49
2023/01/24 19:32:19;;;;;;;3.45;1.20;;;26.20;65.00;;;;;;4161973;28;20096;-45
2023/01/24 19:34:41;;;;;;;2.67;1.30;;;26.20;65.00;;;;;;4175517;28;20517;-46
2023/01/24 19:37:08;;;;;;;2.53;1.30;;;26.20;65.00;;;;;;4173286;28;20088;-45
2023/01/24 19:39:30;;;;;;;1.30;1.10;;;26.20;65.00;;;;;;4179950;28;20293;-45
2023/01/24 19:41:53;;;;;;;1.45;1.30;;;26.20;65.00;;;;;;4180113;28;20202;-48
2023/01/24 19:44:16;;;;;;;1.05;0.95;;;26.20;65.20;;;;;;4177376;28;20068;-48
2023/01/24 19:46:39;;;;;;;3.28;1.30;;;26.20;65.00;;;;;;4156801;28;20136;-46
2023/01/24 19:49:01;;;;;;;1.20;1.00;;;26.20;65.00;;;;;;4180303;28;20047;-45
2023/01/24 19:51:24;;;;;;;3.40;1.00;;;26.10;64.90;;;;;;4171694;28;20040;-47
2023/01/24 19:53:49;;;;;;;2.60;1.00;;;26.10;65.00;;;;;;4177592;28;20040;-47
2023/01/24 19:56:12;;;;;;;1.17;1.08;;;26.10;64.90;;;;;;4176262;28;20566;-48
2023/01/24 19:58:34;;;;;;;1.90;1.15;;;26.10;64.90;;;;;;4161477;28;20037;-51
2023/01/24 20:01:23;;;;;;;1.17;1.00;;;26.10;64.90;;;;;;4175168;28;20048;-51
2023/01/24 20:03:46;;;;;;;1.77;1.30;;;26.10;64.90;;;;;;4165248;28;20536;-47
2023/01/24 20:06:19;;;;;;;2.07;1.10;;;26.10;64.90;;;;;;4170281;28;20080;-46
2023/01/24 20:08:53;;;;;;;1.17;0.98;;;26.10;65.00;;;;;;4167051;28;20337;-46
2023/01/24 20:11:16;;;;;;;1.70;1.02;;;26.10;64.90;;;;;;4162924;28;20041;-49
2023/01/24 20:13:38;;;;;;;2.08;1.33;;;26.10;64.90;;;;;;4174944;28;20057;-46
2023/01/24 20:16:14;;;;;;;1.38;1.13;;;26.10;64.90;;;;;;4167115;28;20049;-46
2023/01/24 20:18:36;;;;;;;0.80;0.80;;;26.10;64.90;;;;;;4168884;28;20045;-49
2023/01/24 20:20:58;;;;;;;2.25;1.23;;;26.00;64.90;;;;;;4181869;28;20033;-46
2023/01/24 20:23:21;;;;;;;1.70;1.25;;;26.00;65.00;;;;;;4154102;28;20237;-46
2023/01/24 20:25:43;;;;;;;1.48;1.00;;;26.00;65.10;;;;;;4165506;28;20076;-50
2023/01/24 20:28:06;;;;;;;3.38;1.38;;;26.00;65.20;;;;;;4163100;28;20436;-46
2023/01/24 20:30:28;;;;;;;3.58;1.50;;;26.00;65.20;;;;;;4173526;28;20412;-41
2023/01/24 20:32:51;;;;;;;1.55;1.27;;;26.00;65.20;;;;;;4170931;28;20122;-43
2023/01/24 20:35:13;;;;;;;3.20;1.45;;;26.00;65.20;;;;;;4179340;28;20116;-46
2023/01/24 20:37:35;;;;;;;3.25;1.92;;;26.00;65.10;;;;;;4170238;28;20094;-44
2023/01/24 20:39:58;;;;;;;3.63;1.85;;;26.00;65.10;;;;;;4177814;28;20447;-44
2023/01/24 20:42:21;;;;;;;2.90;1.70;;;26.00;65.10;;;;;;4173098;28;20564;-44
2023/01/24 20:44:43;;;;;;;2.72;1.55;;;26.00;65.10;;;;;;4171917;28;20115;-48
2023/01/24 20:47:07;;;;;;;2.15;1.50;;;26.00;65.10;;;;;;4164494;28;20049;-44
2023/01/24 20:49:29;;;;;;;2.47;1.70;;;26.00;65.10;;;;;;4155459;28;20073;-46
2023/01/24 20:51:53;;;;;;;3.33;1.60;;;25.90;65.00;;;;;;4172414;28;20124;-43
2023/01/24 20:54:15;;;;;;;3.03;1.85;;;25.90;65.00;;;;;;4171957;28;20039;-43
2023/01/24 20:56:38;;;;;;;2.45;1.75;;;25.90;65.00;;;;;;4178765;28;20037;-44
2023/01/24 20:59:03;;;;;;;1.95;1.38;;;25.90;65.00;;;;;;4177651;28;21158;-46
2023/01/24 21:01:27;;;;;;;2.85;1.45;;;25.90;65.10;;;;;;4177666;28;20493;-46
2023/01/24 21:03:50;;;;;;;8.10;1.70;;;25.90;65.20;;;;;;4170861;28;20512;-51
2023/01/24 21:06:15;;;;;;;4.67;1.90;;;25.80;65.30;;;;;;4174669;28;20056;-44
2023/01/24 21:08:38;;;;;;;6.55;1.55;;;25.90;65.50;;;;;;4181713;28;20372;-42
2023/01/24 21:11:01;;;;;;;3.55;1.85;;;25.90;65.30;;;;;;4171229;28;20037;-43
2023/01/24 21:13:23;;;;;;;3.83;1.73;;;25.90;65.10;;;;;;4158047;28;20081;-45
2023/01/24 21:15:46;;;;;;;5.88;1.92;;;25.90;65.10;;;;;;4167090;28;20459;-42
2023/01/24 21:18:13;;;;;;;2.22;1.40;;;25.90;64.90;;;;;;4165256;28;20041;-45
2023/01/24 21:20:36;;;;;;;4.18;1.52;;;25.90;64.70;;;;;;4173553;28;20095;-43
2023/01/24 21:22:58;;;;;;;3.33;1.30;;;26.00;64.60;;;;;;4173443;28;20064;-44
2023/01/24 21:25:20;;;;;;;4.07;1.75;;;26.00;64.80;;;;;;4178683;28;20048;-41